createdAt,value
2019-06-27T00:00:09.109Z,4.37
2019-06-27T00:02:37.944Z,4.53
2019-06-27T00:05:07.643Z,725.87
2019-06-27T00:07:36.315Z,107.13
2019-06-27T00:10:08.022Z,999.90
2019-06-27T00:12:36.690Z,999.90
2019-06-27T00:15:06.196Z,999.90
2019-06-27T00:17:34.899Z,999.90
2019-06-27T00:20:04.387Z,999.90
2019-06-27T00:22:33.090Z,999.90
2019-06-27T00:25:01.962Z,999.90
2019-06-27T00:27:30.840Z,999.90
2019-06-27T00:29:59.573Z,999.90
2019-06-27T00:32:28.424Z,999.90
2019-06-27T00:35:00.248Z,999.90
2019-06-27T00:37:28.808Z,999.90
2019-06-27T00:39:57.615Z,999.90
2019-06-27T00:42:27.821Z,999.90
2019-06-27T00:44:59.485Z,999.90
2019-06-27T00:47:28.164Z,999.90
2019-06-27T00:49:56.869Z,999.90
2019-06-27T00:52:28.497Z,999.90
2019-06-27T00:55:00.589Z,999.90
2019-06-27T00:57:29.339Z,999.90
2019-06-27T00:59:58.079Z,999.90
2019-06-27T01:02:26.806Z,999.90
2019-06-27T01:04:55.684Z,999.90
2019-06-27T01:07:24.798Z,999.90
2019-06-27T01:09:53.469Z,999.90
2019-06-27T01:12:22.421Z,999.90
2019-06-27T01:14:51.136Z,680.47
2019-06-27T01:17:19.811Z,999.90
2019-06-27T01:19:48.830Z,999.90
2019-06-27T01:22:17.504Z,999.90
2019-06-27T01:24:46.200Z,999.90
2019-06-27T01:27:29.157Z,999.90
2019-06-27T01:29:45.340Z,999.90
2019-06-27T01:32:14.177Z,999.90
2019-06-27T01:34:42.921Z,999.90
2019-06-27T01:37:11.595Z,999.90
2019-06-27T01:39:40.263Z,999.90
2019-06-27T01:42:09.008Z,999.90
2019-06-27T01:44:45.041Z,999.90
2019-06-27T01:47:13.727Z,999.90
2019-06-27T01:49:42.659Z,999.90
2019-06-27T01:52:11.334Z,999.90
2019-06-27T01:54:39.930Z,999.90
2019-06-27T01:57:08.612Z,999.90
2019-06-27T01:59:37.571Z,999.90
2019-06-27T02:02:06.719Z,999.90
2019-06-27T02:04:35.702Z,999.90
2019-06-27T02:07:04.498Z,999.90
2019-06-27T02:09:33.634Z,999.90
2019-06-27T02:12:02.429Z,999.90
2019-06-27T02:14:31.247Z,999.90
2019-06-27T02:16:59.960Z,999.90
2019-06-27T02:19:28.675Z,999.90
2019-06-27T02:22:00.254Z,999.90
2019-06-27T02:24:29.374Z,999.90
2019-06-27T02:26:58.360Z,999.90
2019-06-27T02:29:28.520Z,999.90
2019-06-27T02:31:59.999Z,999.90
2019-06-27T02:34:28.753Z,999.90
2019-06-27T02:36:57.496Z,999.90
2019-06-27T02:39:27.571Z,999.90
2019-06-27T02:41:56.490Z,999.90
2019-06-27T02:44:25.326Z,999.90
2019-06-27T02:46:55.683Z,999.90
2019-06-27T02:49:26.650Z,999.90
2019-06-27T02:51:55.447Z,999.90
2019-06-27T02:54:24.885Z,999.90
2019-06-27T02:56:53.547Z,999.90
2019-06-27T02:59:22.323Z,999.90
2019-06-27T03:01:51.128Z,999.90
2019-06-27T03:04:19.841Z,999.90
2019-06-27T03:06:49.062Z,999.90
2019-06-27T03:09:17.786Z,999.90
2019-06-27T03:11:46.444Z,999.90
2019-06-27T03:14:15.236Z,999.90
2019-06-27T03:16:43.888Z,999.90
2019-06-27T03:19:12.555Z,999.90
2019-06-27T03:21:41.481Z,999.90
2019-06-27T03:24:10.128Z,5.60
2019-06-27T03:26:38.783Z,4.23
2019-06-27T03:29:07.430Z,4.43
2019-06-27T03:31:36.225Z,6.50
2019-06-27T03:34:04.929Z,3.77
2019-06-27T03:36:33.732Z,3.97
2019-06-27T03:39:02.549Z,43.93
2019-06-27T03:41:31.364Z,14.10
2019-06-27T03:44:00.072Z,13.40
2019-06-27T03:46:28.727Z,11.90
2019-06-27T03:48:57.702Z,7.57
2019-06-27T03:51:27.951Z,8.20
2019-06-27T03:53:56.692Z,4.03
2019-06-27T03:56:25.318Z,76.00
2019-06-27T03:59:11.694Z,4.00
2019-06-27T04:01:27.679Z,4.03
2019-06-27T04:03:59.380Z,3.93
2019-06-27T04:06:28.193Z,75.10
2019-06-27T04:08:58.359Z,124.10
2019-06-27T04:11:28.677Z,3.47
2019-06-27T04:13:57.427Z,4.10
2019-06-27T04:16:27.562Z,3.40
2019-06-27T04:18:57.663Z,3.90
2019-06-27T04:21:26.488Z,46.27
2019-06-27T04:23:56.952Z,3.30
2019-06-27T04:26:28.391Z,3.80
2019-06-27T04:28:58.514Z,74.67
2019-06-27T04:31:29.965Z,3.43
2019-06-27T04:33:59.027Z,2.73
2019-06-27T04:36:27.724Z,3.37
2019-06-27T04:38:59.215Z,2.80
2019-06-27T04:41:28.025Z,2.30
2019-06-27T04:43:56.714Z,2.53
2019-06-27T04:46:25.576Z,3.13
2019-06-27T04:48:54.391Z,3.60
2019-06-27T04:51:23.195Z,3.00
2019-06-27T04:53:51.948Z,2.90
2019-06-27T04:56:20.690Z,2.90
2019-06-27T04:58:49.873Z,2.90
2019-06-27T05:01:18.553Z,2.83
2019-06-27T05:03:47.407Z,3.00
2019-06-27T05:06:16.255Z,2.90
2019-06-27T05:08:44.829Z,3.13
2019-06-27T05:11:13.499Z,3.00
2019-06-27T05:13:42.432Z,2.43
2019-06-27T05:16:11.074Z,2.90
2019-06-27T05:18:39.765Z,2.50
2019-06-27T05:21:08.472Z,3.03
2019-06-27T05:23:37.233Z,2.47
2019-06-27T05:26:06.036Z,3.20
2019-06-27T05:28:34.858Z,2.63
2019-06-27T05:31:03.511Z,2.70
2019-06-27T05:33:32.160Z,2.17
2019-06-27T05:36:02.571Z,2.60
2019-06-27T05:38:31.650Z,2.23
2019-06-27T05:41:00.302Z,3.03
2019-06-27T05:43:29.347Z,2.63
2019-06-27T05:45:57.993Z,2.67
2019-06-27T05:48:26.797Z,2.33
2019-06-27T05:50:55.449Z,2.50
2019-06-27T05:53:24.233Z,2.13
2019-06-27T05:55:53.269Z,1.90
2019-06-27T05:58:21.972Z,2.50
2019-06-27T06:00:50.695Z,2.27
2019-06-27T06:03:19.426Z,2.47
2019-06-27T06:05:48.140Z,3.70
2019-06-27T06:08:16.786Z,2.47
2019-06-27T06:10:45.434Z,2.90
2019-06-27T06:13:14.093Z,2.97
2019-06-27T06:15:42.722Z,2.77
2019-06-27T06:18:11.350Z,2.73
2019-06-27T06:20:40.203Z,2.77
2019-06-27T06:23:09.058Z,2.27
2019-06-27T06:25:37.806Z,3.00
2019-06-27T06:28:06.444Z,3.00
2019-06-27T06:30:44.487Z,2.47
2019-06-27T06:33:05.813Z,2.50
2019-06-27T06:35:34.577Z,2.90
2019-06-27T06:38:03.227Z,2.63
2019-06-27T06:40:31.960Z,2.97
2019-06-27T06:43:00.878Z,2.60
2019-06-27T06:45:29.606Z,2.90
2019-06-27T06:47:58.515Z,2.17
2019-06-27T06:50:30.442Z,2.80
2019-06-27T06:52:59.216Z,2.50
2019-06-27T06:55:27.933Z,3.47
2019-06-27T06:57:56.653Z,2.10
2019-06-27T07:00:26.785Z,2.27
2019-06-27T07:02:55.651Z,2.40
2019-06-27T07:05:26.262Z,2.33
2019-06-27T07:07:54.946Z,2.17
2019-06-27T07:10:23.724Z,2.50
2019-06-27T07:12:53.063Z,2.30
2019-06-27T07:15:21.770Z,2.87
2019-06-27T07:17:50.547Z,2.23
2019-06-27T07:20:19.811Z,2.60
2019-06-27T07:22:48.549Z,3.17
2019-06-27T07:25:17.182Z,2.30
2019-06-27T07:27:45.859Z,2.90
2019-06-27T07:30:15.187Z,2.70
2019-06-27T07:32:43.907Z,2.60
2019-06-27T07:35:12.623Z,2.23
2019-06-27T07:37:41.329Z,1.90
2019-06-27T07:40:11.574Z,3.10
2019-06-27T07:42:40.610Z,2.17
2019-06-27T07:45:10.096Z,2.03
2019-06-27T07:47:38.806Z,2.30
2019-06-27T07:50:11.582Z,2.43
2019-06-27T07:52:40.232Z,2.77
2019-06-27T07:55:09.297Z,2.17
2019-06-27T07:57:37.965Z,2.20
2019-06-27T08:00:09.047Z,1.90
2019-06-27T08:02:37.694Z,3.27
2019-06-27T08:05:07.296Z,2.37
2019-06-27T08:07:36.117Z,2.17
2019-06-27T08:10:05.443Z,2.30
2019-06-27T08:12:34.178Z,2.10
2019-06-27T08:15:02.898Z,2.80
2019-06-27T08:17:31.625Z,2.60
2019-06-27T08:20:00.582Z,2.40
2019-06-27T08:22:29.160Z,3.50
2019-06-27T08:24:57.815Z,3.00
2019-06-27T08:27:29.287Z,2.00
2019-06-27T08:29:57.866Z,2.70
2019-06-27T08:32:29.303Z,2.67
2019-06-27T08:34:57.935Z,2.40
2019-06-27T08:37:26.519Z,2.70
2019-06-27T08:39:56.890Z,2.20
2019-06-27T08:42:25.570Z,2.80
2019-06-27T08:44:54.223Z,2.60
2019-06-27T08:47:23.155Z,2.80
2019-06-27T08:49:51.986Z,2.70
2019-06-27T08:52:20.743Z,2.53
2019-06-27T08:54:49.384Z,3.07
2019-06-27T08:57:18.162Z,2.37
2019-06-27T08:59:46.810Z,2.60
2019-06-27T09:02:15.489Z,2.87
2019-06-27T09:04:44.220Z,2.60
2019-06-27T09:07:13.033Z,2.67
2019-06-27T09:09:41.684Z,2.10
2019-06-27T09:12:10.384Z,2.30
2019-06-27T09:14:39.084Z,2.60
2019-06-27T09:17:07.799Z,2.20
2019-06-27T09:19:36.451Z,2.20
2019-06-27T09:22:05.228Z,2.30
2019-06-27T09:24:34.046Z,2.47
2019-06-27T09:27:02.759Z,2.60
2019-06-27T09:29:31.483Z,2.30
2019-06-27T09:32:00.158Z,3.37
2019-06-27T09:34:28.901Z,2.77
2019-06-27T09:36:57.716Z,3.10
2019-06-27T09:39:29.293Z,2.20
2019-06-27T09:41:57.941Z,2.23
2019-06-27T09:44:26.614Z,999.90
2019-06-27T09:46:55.352Z,999.90
2019-06-27T09:49:26.006Z,999.90
2019-06-27T09:51:54.939Z,999.90
2019-06-27T09:54:23.754Z,999.90
2019-06-27T09:56:52.441Z,999.90
2019-06-27T09:59:21.595Z,999.90
2019-06-27T10:01:50.546Z,999.90
2019-06-27T10:04:19.225Z,999.90
2019-06-27T10:06:47.890Z,999.90
2019-06-27T10:09:16.549Z,999.90
2019-06-27T10:11:45.463Z,999.90
2019-06-27T10:14:14.171Z,999.90
2019-06-27T10:16:42.773Z,999.90
2019-06-27T10:19:11.444Z,999.90
2019-06-27T10:21:40.120Z,999.90
2019-06-27T10:24:08.786Z,999.90
2019-06-27T10:26:37.458Z,999.90
2019-06-27T10:29:06.164Z,999.90
2019-06-27T10:31:34.878Z,999.90
2019-06-27T10:34:03.790Z,999.90
2019-06-27T10:36:32.539Z,999.90
2019-06-27T10:39:01.799Z,999.90
2019-06-27T10:41:30.555Z,999.90
2019-06-27T10:44:02.881Z,999.90
2019-06-27T10:46:31.481Z,999.90
2019-06-27T10:49:00.161Z,999.90
2019-06-27T10:51:29.029Z,999.90
2019-06-27T10:53:58.105Z,999.90
2019-06-27T10:56:26.846Z,999.90
2019-06-27T10:58:58.603Z,999.90
2019-06-27T11:01:27.244Z,999.90
2019-06-27T11:03:55.939Z,999.90
2019-06-27T11:06:27.412Z,999.90
2019-06-27T11:08:57.535Z,999.90
2019-06-27T11:11:28.043Z,999.90
2019-06-27T11:13:59.260Z,999.90
2019-06-27T11:16:30.405Z,999.90
2019-06-27T11:18:59.185Z,999.90
2019-06-27T11:21:27.840Z,999.90
2019-06-27T11:23:58.982Z,999.90
2019-06-27T11:26:27.660Z,999.90
2019-06-27T11:28:59.572Z,106.20
2019-06-27T11:31:28.599Z,999.90
2019-06-27T11:33:58.515Z,999.90
2019-06-27T11:36:30.209Z,581.23
2019-06-27T11:38:59.205Z,147.07
2019-06-27T11:41:27.881Z,999.90
2019-06-27T11:43:56.562Z,999.90
2019-06-27T11:46:25.309Z,999.90
2019-06-27T11:48:55.765Z,999.90
2019-06-27T11:51:26.527Z,999.90
2019-06-27T11:53:56.900Z,999.90
2019-06-27T11:56:25.419Z,999.90
2019-06-27T11:58:54.096Z,283.30
2019-06-27T12:01:23.145Z,310.17
2019-06-27T12:03:51.795Z,2.57
2019-06-27T12:06:20.724Z,3.00
2019-06-27T12:08:49.399Z,121.57
2019-06-27T12:11:18.165Z,192.43
2019-06-27T12:13:46.878Z,915.30
2019-06-27T12:16:15.532Z,2.90
2019-06-27T12:18:44.119Z,2.37
2019-06-27T12:21:12.960Z,2.43
2019-06-27T12:23:41.728Z,3.10
2019-06-27T12:26:10.403Z,2.30
2019-06-27T12:28:39.183Z,1.87
2019-06-27T12:31:19.974Z,2.17
2019-06-27T12:33:38.214Z,1.70
2019-06-27T12:36:07.204Z,2.33
2019-06-27T12:38:35.857Z,2.47
2019-06-27T12:41:04.545Z,2.30
2019-06-27T12:43:33.465Z,1.93
2019-06-27T12:46:02.174Z,2.30
2019-06-27T12:48:30.906Z,2.13
2019-06-27T12:50:59.447Z,2.47
2019-06-27T12:53:28.149Z,2.20
2019-06-27T12:55:56.935Z,1.60
2019-06-27T12:58:28.280Z,1.90
2019-06-27T13:00:58.506Z,2.40
2019-06-27T13:03:29.929Z,1.90
2019-06-27T13:05:58.691Z,1.80
2019-06-27T13:08:27.508Z,2.27
2019-06-27T13:10:57.767Z,1.90
2019-06-27T13:13:30.568Z,2.10
2019-06-27T13:15:59.603Z,1.80
2019-06-27T13:18:28.499Z,1.80
2019-06-27T13:21:00.113Z,2.30
2019-06-27T13:23:28.772Z,2.50
2019-06-27T13:25:57.453Z,1.83
2019-06-27T13:28:27.525Z,2.13
2019-06-27T13:30:57.633Z,2.33
2019-06-27T13:33:27.736Z,2.20
2019-06-27T13:35:59.169Z,2.03
2019-06-27T13:38:28.098Z,2.07
2019-06-27T13:40:56.925Z,1.90
2019-06-27T13:43:28.749Z,2.07
2019-06-27T13:45:57.375Z,2.00
2019-06-27T13:48:26.320Z,2.40
2019-06-27T13:50:57.780Z,2.00
2019-06-27T13:53:25.857Z,1.67
2019-06-27T13:55:57.000Z,1.90
2019-06-27T13:58:29.010Z,2.43
2019-06-27T14:00:57.777Z,2.00
2019-06-27T14:03:29.675Z,1.87
2019-06-27T14:05:58.791Z,2.37
2019-06-27T14:08:27.464Z,1.90
2019-06-27T14:10:58.091Z,2.30
2019-06-27T14:13:26.744Z,1.70
2019-06-27T14:15:55.396Z,2.17
2019-06-27T14:18:25.390Z,1.93
2019-06-27T14:20:55.375Z,2.33
2019-06-27T14:23:24.359Z,2.00
2019-06-27T14:25:53.011Z,1.93
2019-06-27T14:28:21.661Z,2.40
2019-06-27T14:30:50.304Z,2.43
2019-06-27T14:33:18.978Z,179.53
2019-06-27T14:35:47.644Z,999.90
2019-06-27T14:38:16.299Z,1.30
2019-06-27T14:40:45.146Z,999.90
2019-06-27T14:43:13.864Z,999.90
2019-06-27T14:45:42.666Z,353.03
2019-06-27T14:48:11.329Z,1.60
2019-06-27T14:50:40.098Z,1.43
2019-06-27T14:53:09.013Z,1.33
2019-06-27T14:55:37.668Z,2.43
2019-06-27T14:58:06.359Z,2.00
2019-06-27T15:00:35.045Z,2.37
2019-06-27T15:03:03.687Z,1.50
2019-06-27T15:05:33.712Z,1.30
2019-06-27T15:08:02.473Z,1.70
2019-06-27T15:10:31.143Z,1.87
2019-06-27T15:12:59.799Z,1.77
2019-06-27T15:15:28.487Z,2.10
2019-06-27T15:18:00.180Z,1.67
2019-06-27T15:20:28.868Z,1.67
2019-06-27T15:22:57.521Z,2.30
2019-06-27T15:25:28.503Z,1.90
2019-06-27T15:27:57.397Z,1.90
2019-06-27T15:30:27.567Z,2.17
2019-06-27T15:32:57.724Z,1.70
2019-06-27T15:35:33.450Z,1.47
2019-06-27T15:38:00.290Z,1.43
2019-06-27T15:40:28.910Z,1.87
2019-06-27T15:42:57.626Z,1.73
2019-06-27T15:45:27.713Z,1.30
2019-06-27T15:47:59.210Z,1.30
2019-06-27T15:50:27.881Z,1.57
2019-06-27T15:52:56.590Z,1.50
2019-06-27T15:55:25.411Z,1.90
2019-06-27T15:57:54.062Z,1.77
2019-06-27T16:00:22.853Z,1.63
2019-06-27T16:02:51.559Z,1.70
2019-06-27T16:05:20.252Z,1.40
2019-06-27T16:07:48.938Z,1.90
2019-06-27T16:10:17.795Z,1.90
2019-06-27T16:12:47.639Z,1.50
2019-06-27T16:15:16.592Z,1.60
2019-06-27T16:17:45.269Z,1.93
2019-06-27T16:20:14.509Z,2.00
2019-06-27T16:22:43.713Z,1.77
2019-06-27T16:25:12.739Z,2.33
2019-06-27T16:27:42.181Z,2.60
2019-06-27T16:30:12.073Z,1.70
2019-06-27T16:32:40.812Z,1.73
2019-06-27T16:35:09.656Z,2.10
2019-06-27T16:37:38.287Z,1.93
2019-06-27T16:40:07.732Z,1.93
2019-06-27T16:42:37.496Z,2.00
2019-06-27T16:45:07.889Z,1.93
2019-06-27T16:47:36.820Z,1.57
2019-06-27T16:50:05.710Z,1.90
2019-06-27T16:52:34.670Z,1.77
2019-06-27T16:55:03.327Z,1.73
2019-06-27T16:57:31.995Z,2.30
2019-06-27T17:00:02.981Z,2.03
2019-06-27T17:02:31.721Z,1.53
2019-06-27T17:05:01.169Z,1.50
2019-06-27T17:07:30.604Z,2.77
2019-06-27T17:09:59.367Z,2.10
2019-06-27T17:12:28.121Z,2.13
2019-06-27T17:14:56.984Z,1.70
2019-06-27T17:17:28.650Z,1.60
2019-06-27T17:19:58.156Z,1.73
2019-06-27T17:22:27.326Z,1.93
2019-06-27T17:24:56.032Z,1.77
2019-06-27T17:27:27.938Z,1.40
2019-06-27T17:29:56.653Z,2.00
2019-06-27T17:32:25.365Z,1.77
2019-06-27T17:34:55.856Z,2.27
2019-06-27T17:37:27.627Z,1.70
2019-06-27T17:39:56.543Z,1.90
2019-06-27T17:42:27.003Z,1.70
2019-06-27T17:44:58.598Z,1.87
2019-06-27T17:47:30.589Z,2.00
2019-06-27T17:49:59.240Z,1.70
2019-06-27T17:52:31.311Z,1.67
2019-06-27T17:54:58.507Z,1.77
2019-06-27T17:57:30.000Z,2.27
2019-06-27T17:59:58.815Z,1.67
2019-06-27T18:02:27.631Z,1.60
2019-06-27T18:04:57.891Z,2.27
2019-06-27T18:07:29.669Z,1.43
2019-06-27T18:09:58.394Z,1.93
2019-06-27T18:12:28.621Z,1.80
2019-06-27T18:15:00.051Z,1.60
2019-06-27T18:17:33.421Z,1.63
2019-06-27T18:19:59.450Z,1.60
2019-06-27T18:22:28.269Z,3.07
2019-06-27T18:24:58.403Z,1.87
2019-06-27T18:27:28.078Z,1.57
2019-06-27T18:29:57.003Z,1.40
2019-06-27T18:32:28.484Z,1.20
2019-06-27T18:34:58.765Z,1.50
2019-06-27T18:37:30.000Z,1.30
2019-06-27T18:39:58.304Z,2.40
2019-06-27T18:42:28.452Z,1.60
2019-06-27T18:45:00.660Z,1.20
2019-06-27T18:47:29.399Z,1.43
2019-06-27T18:49:58.191Z,1.70
2019-06-27T18:52:28.322Z,1.27
2019-06-27T18:54:57.614Z,1.50
2019-06-27T18:57:26.413Z,1.67
2019-06-27T18:59:56.989Z,1.90
2019-06-27T19:02:27.282Z,1.70
2019-06-27T19:04:56.162Z,1.70
2019-06-27T19:07:24.983Z,1.80
2019-06-27T19:09:55.498Z,2.20
2019-06-27T19:12:24.152Z,1.80
2019-06-27T19:14:52.991Z,1.70
2019-06-27T19:17:21.701Z,1.90
2019-06-27T19:19:55.863Z,2.17
2019-06-27T19:22:42.696Z,1.73
2019-06-27T19:25:13.253Z,1.77
2019-06-27T19:27:42.549Z,1.90
2019-06-27T19:30:11.363Z,1.90
2019-06-27T19:32:40.196Z,1.50
2019-06-27T19:35:09.115Z,2.00
2019-06-27T19:37:38.229Z,1.40
2019-06-27T19:40:08.386Z,1.97
2019-06-27T19:42:37.052Z,1.23
2019-06-27T19:45:06.779Z,1.60
2019-06-27T19:47:35.495Z,1.87
2019-06-27T19:50:06.094Z,2.07
2019-06-27T19:52:34.808Z,2.40
2019-06-27T19:55:04.148Z,1.80
2019-06-27T19:57:34.327Z,2.17
2019-06-27T20:00:03.939Z,2.50
2019-06-27T20:02:33.482Z,1.60
2019-06-27T20:05:02.645Z,2.20
2019-06-27T20:07:32.033Z,1.60
2019-06-27T20:10:01.365Z,1.63
2019-06-27T20:12:30.403Z,2.20
2019-06-27T20:14:59.957Z,2.13
2019-06-27T20:17:29.136Z,2.03
2019-06-27T20:19:58.589Z,2.00
2019-06-27T20:22:30.660Z,1.93
2019-06-27T20:24:59.627Z,2.10
2019-06-27T20:27:30.505Z,2.10
2019-06-27T20:29:59.589Z,2.30
2019-06-27T20:32:28.829Z,2.23
2019-06-27T20:34:57.768Z,529.47
2019-06-27T20:37:29.735Z,55.83
2019-06-27T20:39:59.506Z,999.90
2019-06-27T20:42:30.204Z,999.90
2019-06-27T20:45:01.192Z,999.90
2019-06-27T20:47:32.304Z,999.90
2019-06-27T20:50:04.069Z,999.90
2019-06-27T20:52:35.911Z,259.90
2019-06-27T20:55:05.426Z,2.50
2019-06-27T20:57:34.146Z,2.03
2019-06-27T21:00:02.976Z,2.10
2019-06-27T21:02:32.000Z,1.60
2019-06-27T21:05:00.749Z,2.33
2019-06-27T21:07:29.591Z,1.87
2019-06-27T21:09:58.323Z,2.07
2019-06-27T21:12:28.699Z,2.03
2019-06-27T21:14:58.064Z,2.00
2019-06-27T21:17:26.961Z,2.30
2019-06-27T21:19:55.972Z,2.17
2019-06-27T21:22:28.204Z,1.57
2019-06-27T21:24:56.929Z,2.23
2019-06-27T21:27:28.421Z,2.33
2019-06-27T21:29:59.862Z,1.83
2019-06-27T21:32:31.830Z,1.93
2019-06-27T21:34:59.132Z,2.07
2019-06-27T21:37:27.868Z,2.30
2019-06-27T21:39:59.986Z,5.17
2019-06-27T21:42:28.734Z,999.90
2019-06-27T21:44:57.779Z,692.27
2019-06-27T21:47:29.376Z,2.20
2019-06-27T21:49:58.168Z,2.33
2019-06-27T21:52:26.855Z,2.13
2019-06-27T21:54:57.034Z,2.00
2019-06-27T21:57:28.835Z,2.30
2019-06-27T21:59:58.501Z,2.30
2019-06-27T22:02:30.310Z,2.00
2019-06-27T22:04:59.030Z,2.43
2019-06-27T22:07:28.158Z,2.43
2019-06-27T22:09:57.031Z,2.57
2019-06-27T22:12:28.742Z,1.70
2019-06-27T22:14:57.676Z,2.10
2019-06-27T22:17:29.566Z,2.10
2019-06-27T22:20:14.031Z,1.63
2019-06-27T22:22:28.782Z,2.57
2019-06-27T22:24:58.145Z,1.70
2019-06-27T22:27:26.813Z,2.30
2019-06-27T22:29:55.584Z,2.10
2019-06-27T22:32:24.333Z,1.70
2019-06-27T22:34:53.108Z,2.00
2019-06-27T22:37:25.074Z,1.77
2019-06-27T22:40:12.514Z,1.93
2019-06-27T22:42:58.918Z,1.83
2019-06-27T22:45:45.132Z,1.90
2019-06-27T22:48:13.954Z,2.67
2019-06-27T22:50:52.402Z,1.90
2019-06-27T22:53:31.871Z,2.07
2019-06-27T22:56:00.600Z,1.87
2019-06-27T22:58:29.559Z,2.13
2019-06-27T23:00:58.282Z,2.10
2019-06-27T23:03:28.482Z,1.80
2019-06-27T23:06:00.127Z,2.17
2019-06-27T23:08:28.909Z,1.70
2019-06-27T23:10:57.924Z,1.80
2019-06-27T23:13:27.056Z,1.93
2019-06-27T23:15:55.767Z,2.10
2019-06-27T23:18:26.693Z,1.70
2019-06-27T23:20:55.350Z,2.03
2019-06-27T23:23:24.187Z,2.00
2019-06-27T23:25:52.841Z,2.40
2019-06-27T23:28:21.546Z,1.90
2019-06-27T23:30:50.289Z,1.87
2019-06-27T23:33:19.086Z,1.60
2019-06-27T23:35:47.902Z,3.80
2019-06-27T23:38:16.716Z,2.20
2019-06-27T23:40:45.428Z,2.00
2019-06-27T23:43:14.242Z,1.80
2019-06-27T23:45:43.472Z,2.40
2019-06-27T23:48:12.701Z,2.10
2019-06-27T23:50:41.264Z,2.10
2019-06-27T23:53:09.950Z,1.90
2019-06-27T23:55:38.618Z,2.40
2019-06-27T23:58:07.505Z,1.80
